createdAt,value
2022-12-20T00:01:27.281Z,100.00
2022-12-20T00:03:57.487Z,100.00
2022-12-20T00:06:25.363Z,100.00
2022-12-20T00:09:00.768Z,100.00
2022-12-20T00:11:29.363Z,100.00
2022-12-20T00:13:56.832Z,100.00
2022-12-20T00:16:26.936Z,100.00
2022-12-20T00:19:05.742Z,100.00
2022-12-20T00:21:35.116Z,100.00
2022-12-20T00:24:02.387Z,100.00
2022-12-20T00:26:32.537Z,100.00
2022-12-20T00:29:00.722Z,100.00
2022-12-20T00:31:30.170Z,100.00
2022-12-20T00:33:59.110Z,100.00
2022-12-20T00:36:29.294Z,100.00
2022-12-20T00:38:58.683Z,100.00
2022-12-20T00:41:28.938Z,100.00
2022-12-20T00:43:56.121Z,100.00
2022-12-20T00:46:24.982Z,100.00
2022-12-20T00:48:52.817Z,100.00
2022-12-20T00:51:24.893Z,100.00
2022-12-20T00:53:52.419Z,100.00
2022-12-20T00:56:20.205Z,100.00
2022-12-20T00:58:47.616Z,100.00
2022-12-20T01:01:27.816Z,100.00
2022-12-20T01:03:55.319Z,100.00
2022-12-20T01:06:25.467Z,100.00
2022-12-20T01:08:53.665Z,100.00
2022-12-20T01:11:28.202Z,100.00
2022-12-20T01:13:59.844Z,100.00
2022-12-20T01:16:42.776Z,100.00
2022-12-20T01:19:13.797Z,100.00
2022-12-20T01:21:44.770Z,100.00
2022-12-20T01:24:18.687Z,100.00
2022-12-20T01:26:46.258Z,100.00
2022-12-20T01:29:14.581Z,100.00
2022-12-20T01:31:41.851Z,100.00
2022-12-20T01:34:10.887Z,100.00
2022-12-20T01:36:38.694Z,100.00
2022-12-20T01:39:14.410Z,100.00
2022-12-20T01:41:42.969Z,100.00
2022-12-20T01:44:33.261Z,100.00
2022-12-20T01:47:00.344Z,100.00
2022-12-20T01:49:32.992Z,100.00
2022-12-20T01:52:08.626Z,100.00
2022-12-20T01:54:47.405Z,100.00
2022-12-20T01:57:35.194Z,100.00
2022-12-20T02:00:02.388Z,100.00
2022-12-20T02:02:29.538Z,100.00
2022-12-20T02:04:56.571Z,100.00
2022-12-20T02:07:30.150Z,100.00
2022-12-20T02:09:59.138Z,100.00
2022-12-20T02:12:32.469Z,100.00
2022-12-20T02:15:08.878Z,100.00
2022-12-20T02:17:45.342Z,100.00
2022-12-20T02:20:58.431Z,100.00
2022-12-20T02:23:40.164Z,100.00
2022-12-20T02:26:31.311Z,100.00
2022-12-20T02:29:36.072Z,100.00
2022-12-20T02:32:04.608Z,100.00
2022-12-20T02:34:36.157Z,100.00
2022-12-20T02:37:03.206Z,100.00
2022-12-20T02:39:32.386Z,100.00
2022-12-20T02:42:07.339Z,100.00
2022-12-20T02:44:55.048Z,100.00
2022-12-20T02:47:32.000Z,100.00
2022-12-20T02:49:59.564Z,100.00
2022-12-20T02:52:31.204Z,100.00
2022-12-20T02:55:00.487Z,100.00
2022-12-20T02:58:00.439Z,100.00
2022-12-20T03:00:38.866Z,100.00
2022-12-20T03:03:25.685Z,100.00
2022-12-20T03:05:56.110Z,100.00
2022-12-20T03:08:24.164Z,100.00
2022-12-20T03:10:53.904Z,100.00
2022-12-20T03:13:25.515Z,100.00
2022-12-20T03:15:52.637Z,100.00
2022-12-20T03:18:19.535Z,100.00
2022-12-20T03:20:46.398Z,100.00
2022-12-20T03:23:13.256Z,100.00
2022-12-20T03:25:40.286Z,100.00
2022-12-20T03:28:07.566Z,100.00
2022-12-20T03:30:34.489Z,100.00
2022-12-20T03:33:01.695Z,100.00
2022-12-20T03:35:28.551Z,100.00
2022-12-20T03:37:56.677Z,100.00
2022-12-20T03:40:23.602Z,100.00
2022-12-20T03:42:50.784Z,100.00
2022-12-20T03:45:18.444Z,100.00
2022-12-20T03:47:45.336Z,100.00
2022-12-20T03:50:12.365Z,100.00
2022-12-20T03:52:39.342Z,100.00
2022-12-20T03:55:07.279Z,100.00
2022-12-20T03:57:34.449Z,100.00
2022-12-20T04:00:01.366Z,100.00
2022-12-20T04:02:28.354Z,100.00
2022-12-20T04:04:55.669Z,100.00
2022-12-20T04:07:22.447Z,100.00
2022-12-20T04:09:49.214Z,100.00
2022-12-20T04:12:16.117Z,100.00
2022-12-20T04:14:42.926Z,100.00
2022-12-20T04:17:09.748Z,100.00
2022-12-20T04:19:36.556Z,100.00
2022-12-20T04:22:05.985Z,100.00
2022-12-20T04:24:33.212Z,100.00
2022-12-20T04:27:00.024Z,100.00
2022-12-20T04:29:26.896Z,100.00
2022-12-20T04:31:53.698Z,100.00
2022-12-20T04:34:20.527Z,100.00
2022-12-20T04:36:47.720Z,100.00
2022-12-20T04:39:14.493Z,100.00
2022-12-20T04:41:41.270Z,100.00
2022-12-20T04:44:08.295Z,100.00
2022-12-20T04:46:35.305Z,100.00
2022-12-20T04:49:02.452Z,100.00
2022-12-20T04:51:29.273Z,100.00
2022-12-20T04:53:56.855Z,100.00
2022-12-20T04:56:29.099Z,100.00
2022-12-20T04:58:58.791Z,100.00
2022-12-20T05:01:26.711Z,100.00
2022-12-20T05:03:54.206Z,100.00
2022-12-20T05:06:21.041Z,100.00
2022-12-20T05:08:48.336Z,100.00
2022-12-20T05:11:15.184Z,100.00
2022-12-20T05:13:42.258Z,100.00
2022-12-20T05:16:09.373Z,100.00
2022-12-20T05:18:36.694Z,100.00
2022-12-20T05:21:22.930Z,100.00
2022-12-20T05:24:08.359Z,100.00
2022-12-20T05:26:38.128Z,100.00
2022-12-20T05:29:06.570Z,100.00
2022-12-20T05:31:33.890Z,100.00
2022-12-20T05:34:00.970Z,100.00
2022-12-20T05:36:28.024Z,100.00
2022-12-20T05:39:00.114Z,100.00
2022-12-20T05:41:30.340Z,100.00
2022-12-20T05:43:57.148Z,100.00
2022-12-20T05:46:24.687Z,100.00
2022-12-20T05:48:51.511Z,100.00
2022-12-20T05:51:18.600Z,100.00
2022-12-20T05:53:45.946Z,100.00
2022-12-20T05:56:12.898Z,100.00
2022-12-20T05:58:40.427Z,100.00
2022-12-20T06:01:08.981Z,100.00
2022-12-20T06:03:36.912Z,100.00
2022-12-20T06:06:10.124Z,100.00
2022-12-20T06:08:37.270Z,100.00
2022-12-20T06:11:05.332Z,100.00
2022-12-20T06:13:32.193Z,100.00
2022-12-20T06:16:00.685Z,100.00
2022-12-20T06:18:27.948Z,100.00
2022-12-20T06:20:57.732Z,100.00
2022-12-20T06:23:24.988Z,100.00
2022-12-20T06:25:52.922Z,100.00
2022-12-20T06:28:22.313Z,100.00
2022-12-20T06:30:54.574Z,100.00
2022-12-20T06:33:21.788Z,100.00
2022-12-20T06:35:51.080Z,100.00
2022-12-20T06:38:18.629Z,100.00
2022-12-20T06:40:45.404Z,100.00
2022-12-20T06:43:12.179Z,100.00
2022-12-20T06:45:41.777Z,100.00
2022-12-20T06:48:10.310Z,100.00
2022-12-20T06:50:39.315Z,100.00
2022-12-20T06:53:06.497Z,100.00
2022-12-20T06:55:33.878Z,100.00
2022-12-20T06:58:00.663Z,100.00
2022-12-20T07:00:27.631Z,100.00
2022-12-20T07:02:55.006Z,100.00
2022-12-20T07:05:22.229Z,100.00
2022-12-20T07:07:49.550Z,100.00
2022-12-20T07:10:17.387Z,100.00
2022-12-20T07:12:48.142Z,100.00
2022-12-20T07:15:16.361Z,100.00
2022-12-20T07:17:43.368Z,100.00
2022-12-20T07:20:13.936Z,100.00
2022-12-20T07:22:41.917Z,100.00
2022-12-20T07:25:09.797Z,100.00
2022-12-20T07:27:36.974Z,100.00
2022-12-20T07:30:05.332Z,100.00
2022-12-20T07:32:32.328Z,100.00
2022-12-20T07:34:59.793Z,100.00
2022-12-20T07:37:30.261Z,100.00
2022-12-20T07:39:57.190Z,100.00
2022-12-20T07:42:27.771Z,100.00
2022-12-20T07:45:00.944Z,100.00
2022-12-20T07:47:29.379Z,100.00
2022-12-20T07:49:56.183Z,100.00
2022-12-20T07:52:26.797Z,100.00
2022-12-20T07:54:58.926Z,100.00
2022-12-20T07:57:38.417Z,100.00
2022-12-20T08:00:06.635Z,100.00
2022-12-20T08:02:45.853Z,100.00
2022-12-20T08:05:13.294Z,100.00
2022-12-20T08:07:43.122Z,100.00
2022-12-20T08:10:13.088Z,100.00
2022-12-20T08:12:41.426Z,100.00
2022-12-20T08:15:09.895Z,100.00
2022-12-20T08:17:36.763Z,100.00
2022-12-20T08:20:05.891Z,100.00
2022-12-20T08:22:33.160Z,100.00
2022-12-20T08:25:00.128Z,100.00
2022-12-20T08:27:27.092Z,100.00
2022-12-20T08:29:53.864Z,100.00
2022-12-20T08:32:20.833Z,100.00
2022-12-20T08:34:48.548Z,100.00
2022-12-20T08:37:18.654Z,100.00
2022-12-20T08:39:45.584Z,100.00
2022-12-20T08:42:13.153Z,100.00
2022-12-20T08:44:40.034Z,100.00
2022-12-20T08:47:06.842Z,100.00
2022-12-20T08:49:33.676Z,100.00
2022-12-20T08:52:00.474Z,100.00
2022-12-20T08:54:27.281Z,100.00
2022-12-20T08:56:54.206Z,100.00
2022-12-20T08:59:21.021Z,100.00
2022-12-20T09:01:48.181Z,100.00
2022-12-20T09:04:15.533Z,100.00
2022-12-20T09:06:42.374Z,100.00
2022-12-20T09:09:09.510Z,100.00
2022-12-20T09:11:36.357Z,100.00
2022-12-20T09:14:03.478Z,100.00
2022-12-20T09:16:32.762Z,100.00
2022-12-20T09:19:05.678Z,100.00
2022-12-20T09:21:34.437Z,100.00
2022-12-20T09:24:01.330Z,100.00
2022-12-20T09:26:28.224Z,100.00
2022-12-20T09:28:55.242Z,100.00
2022-12-20T09:31:25.732Z,100.00
2022-12-20T09:34:00.001Z,100.00
2022-12-20T09:36:29.493Z,100.00
2022-12-20T09:38:57.222Z,100.00
2022-12-20T09:41:38.714Z,100.00
2022-12-20T09:44:27.077Z,100.00
2022-12-20T09:47:21.570Z,100.00
2022-12-20T09:49:52.754Z,100.00
2022-12-20T09:53:06.090Z,100.00
2022-12-20T09:56:01.260Z,100.00
2022-12-20T09:58:45.529Z,100.00
2022-12-20T10:01:24.888Z,100.00
2022-12-20T10:03:54.904Z,100.00
2022-12-20T10:06:30.921Z,100.00
2022-12-20T10:09:03.585Z,100.00
2022-12-20T10:12:22.216Z,100.00
2022-12-20T10:15:41.677Z,100.00
2022-12-20T10:18:26.857Z,100.00
2022-12-20T10:21:45.166Z,100.00
2022-12-20T10:24:30.600Z,100.00
2022-12-20T10:27:07.778Z,100.00
2022-12-20T10:29:34.577Z,100.00
2022-12-20T10:32:02.537Z,100.00
2022-12-20T10:34:36.537Z,100.00
2022-12-20T10:37:16.589Z,100.00
2022-12-20T10:39:48.759Z,100.00
2022-12-20T10:42:41.444Z,100.00
2022-12-20T10:45:17.800Z,100.00
2022-12-20T10:47:47.184Z,100.00
2022-12-20T10:50:23.246Z,100.00
2022-12-20T10:53:09.856Z,100.00
2022-12-20T10:55:42.810Z,100.00
2022-12-20T10:58:18.605Z,100.00
2022-12-20T11:00:46.095Z,100.00
2022-12-20T11:03:22.609Z,100.00
2022-12-20T11:06:03.639Z,100.00
2022-12-20T11:08:39.320Z,100.00
2022-12-20T11:11:14.886Z,100.00
2022-12-20T11:13:43.602Z,100.00
2022-12-20T11:16:38.166Z,100.00
2022-12-20T11:19:35.937Z,100.00
2022-12-20T11:22:21.035Z,100.00
2022-12-20T11:25:15.433Z,100.00
2022-12-20T11:27:58.020Z,100.00
2022-12-20T11:30:34.410Z,100.00
2022-12-20T11:33:22.781Z,100.00
2022-12-20T11:36:21.781Z,100.00
2022-12-20T11:39:00.594Z,100.00
2022-12-20T11:41:56.613Z,100.00
2022-12-20T11:45:03.299Z,100.00
2022-12-20T11:48:09.953Z,100.00
2022-12-20T11:50:45.931Z,100.00
2022-12-20T11:53:35.172Z,100.00
2022-12-20T11:56:17.621Z,100.00
2022-12-20T11:58:56.512Z,100.00
2022-12-20T12:02:01.720Z,100.00
2022-12-20T12:04:35.609Z,100.00
2022-12-20T12:07:16.701Z,100.00
2022-12-20T12:10:05.837Z,100.00
2022-12-20T12:12:53.842Z,100.00
2022-12-20T12:15:47.642Z,100.00
2022-12-20T12:18:22.397Z,100.00
2022-12-20T12:21:06.606Z,100.00
2022-12-20T12:23:56.323Z,100.00
2022-12-20T12:26:28.321Z,100.00
2022-12-20T12:29:01.753Z,100.00
2022-12-20T12:31:44.686Z,100.00
2022-12-20T12:34:23.551Z,100.00
2022-12-20T12:37:02.140Z,100.00
2022-12-20T12:40:04.493Z,100.00
2022-12-20T12:42:52.397Z,100.00
2022-12-20T12:45:32.992Z,100.00
2022-12-20T12:48:14.051Z,100.00
2022-12-20T12:50:48.301Z,99.69
2022-12-20T12:53:21.978Z,99.85
2022-12-20T12:56:02.287Z,100.00
2022-12-20T12:58:46.487Z,99.90
2022-12-20T13:01:50.191Z,99.79
2022-12-20T13:04:20.057Z,99.60
2022-12-20T13:07:00.611Z,99.81
2022-12-20T13:09:27.890Z,99.63
2022-12-20T13:12:03.323Z,99.29
2022-12-20T13:14:31.192Z,99.44
2022-12-20T13:17:19.522Z,99.71
2022-12-20T13:19:56.170Z,99.67
2022-12-20T13:22:25.736Z,99.63
2022-12-20T13:24:58.237Z,99.46
2022-12-20T13:27:42.092Z,99.29
2022-12-20T13:30:12.111Z,99.45
2022-12-20T13:32:48.222Z,99.27
2022-12-20T13:35:28.191Z,99.13
2022-12-20T13:38:34.213Z,98.99
2022-12-20T13:41:11.966Z,98.83
2022-12-20T13:43:45.162Z,98.35
2022-12-20T13:46:12.116Z,98.55
2022-12-20T13:48:41.863Z,98.41
2022-12-20T13:51:09.743Z,98.46
2022-12-20T13:53:38.685Z,98.64
2022-12-20T13:56:27.465Z,98.01
2022-12-20T13:58:57.365Z,98.02
2022-12-20T14:01:26.310Z,97.52
2022-12-20T14:03:54.016Z,97.63
2022-12-20T14:06:26.884Z,97.32
2022-12-20T14:08:54.644Z,97.00
2022-12-20T14:11:27.515Z,96.99
2022-12-20T14:13:57.423Z,96.58
2022-12-20T14:16:27.698Z,96.70
2022-12-20T14:19:01.279Z,96.44
2022-12-20T14:21:28.619Z,96.24
2022-12-20T14:23:58.502Z,96.46
2022-12-20T14:26:30.318Z,95.57
2022-12-20T14:29:02.031Z,94.63
2022-12-20T14:31:43.136Z,94.86
2022-12-20T14:34:12.650Z,94.97
2022-12-20T14:36:46.762Z,94.36
2022-12-20T14:39:34.486Z,93.46
2022-12-20T14:42:07.402Z,94.30
2022-12-20T14:44:35.285Z,93.47
2022-12-20T14:47:16.937Z,92.92
2022-12-20T14:50:05.096Z,92.17
2022-12-20T14:52:39.089Z,92.39
2022-12-20T14:55:31.430Z,91.22
2022-12-20T14:57:58.634Z,91.14
2022-12-20T15:00:29.412Z,91.30
2022-12-20T15:02:56.447Z,90.83
2022-12-20T15:05:36.355Z,90.39
2022-12-20T15:08:35.349Z,90.59
2022-12-20T15:11:23.096Z,89.51
2022-12-20T15:13:54.721Z,90.24
2022-12-20T15:16:24.757Z,90.00
2022-12-20T15:19:03.209Z,90.06
2022-12-20T15:21:42.996Z,90.40
2022-12-20T15:24:17.116Z,90.18
2022-12-20T15:26:43.893Z,90.46
2022-12-20T15:29:21.295Z,90.51
2022-12-20T15:31:50.158Z,90.88
2022-12-20T15:34:37.512Z,91.02
2022-12-20T15:37:06.437Z,91.06
2022-12-20T15:39:34.538Z,91.64
2022-12-20T15:42:04.753Z,91.72
2022-12-20T15:44:31.946Z,91.83
2022-12-20T15:46:58.981Z,92.30
2022-12-20T15:49:30.334Z,92.64
2022-12-20T15:51:57.890Z,93.03
2022-12-20T15:54:34.870Z,93.22
2022-12-20T15:57:10.064Z,93.66
2022-12-20T16:02:29.742Z,93.68
2022-12-20T16:04:57.777Z,94.23
2022-12-20T16:07:24.724Z,94.19
2022-12-20T16:09:51.815Z,94.52
2022-12-20T16:12:30.093Z,94.66
2022-12-20T16:14:57.228Z,94.45
2022-12-20T16:17:24.636Z,94.50
2022-12-20T16:19:55.706Z,94.79
2022-12-20T16:22:24.179Z,94.82
2022-12-20T16:24:51.918Z,94.66
2022-12-20T16:27:20.806Z,94.65
2022-12-20T16:29:47.902Z,94.65
2022-12-20T16:32:15.834Z,94.79
2022-12-20T16:34:43.337Z,94.57
2022-12-20T16:37:11.980Z,94.16
2022-12-20T16:39:39.106Z,93.31
2022-12-20T16:42:17.805Z,93.52
2022-12-20T16:44:46.103Z,92.89
2022-12-20T16:47:14.617Z,92.73
2022-12-20T16:49:51.629Z,92.78
2022-12-20T16:52:20.042Z,92.44
2022-12-20T16:54:47.386Z,92.65
2022-12-20T16:57:14.189Z,92.18
2022-12-20T16:59:40.965Z,92.18
2022-12-20T17:02:29.881Z,91.87
2022-12-20T17:04:56.855Z,92.31
2022-12-20T17:07:23.961Z,92.17
2022-12-20T17:12:32.405Z,91.96
2022-12-20T17:14:59.207Z,91.82
2022-12-20T17:17:26.151Z,92.02
2022-12-20T17:19:52.967Z,92.07
2022-12-20T17:22:23.253Z,92.34
2022-12-20T17:24:50.097Z,92.36
2022-12-20T17:27:16.885Z,92.57
2022-12-20T17:29:44.052Z,92.93
2022-12-20T17:32:24.205Z,92.78
2022-12-20T17:34:51.849Z,92.97
2022-12-20T17:37:19.134Z,93.36
2022-12-20T17:39:46.037Z,93.45
2022-12-20T17:42:14.047Z,94.13
2022-12-20T17:44:40.856Z,93.81
2022-12-20T17:47:07.762Z,93.96
2022-12-20T17:49:34.875Z,93.97
2022-12-20T17:52:01.691Z,94.29
2022-12-20T17:54:33.510Z,94.24
2022-12-20T17:57:03.805Z,94.31
2022-12-20T17:59:30.856Z,94.32
2022-12-20T18:01:58.226Z,94.40
2022-12-20T18:04:26.868Z,95.03
2022-12-20T18:06:54.022Z,94.60
2022-12-20T18:09:22.836Z,95.00
2022-12-20T18:11:49.957Z,94.95
2022-12-20T18:14:17.610Z,95.15
2022-12-20T18:16:44.774Z,95.47
2022-12-20T18:19:18.705Z,95.89
2022-12-20T18:21:45.747Z,96.12
2022-12-20T18:24:16.661Z,96.32
2022-12-20T18:26:45.080Z,96.77
2022-12-20T18:29:12.356Z,96.56
2022-12-20T18:31:39.473Z,97.11
2022-12-20T18:34:06.583Z,96.91
2022-12-20T18:36:36.720Z,97.19
2022-12-20T18:39:08.662Z,97.20
2022-12-20T18:41:35.942Z,97.77
2022-12-20T18:44:06.218Z,97.82
2022-12-20T18:46:34.013Z,97.96
2022-12-20T18:49:01.673Z,98.54
2022-12-20T18:51:38.276Z,98.88
2022-12-20T18:54:08.329Z,98.94
2022-12-20T18:56:38.665Z,99.26
2022-12-20T18:59:14.214Z,99.62
2022-12-20T19:01:42.632Z,99.87
2022-12-20T19:04:10.878Z,99.87
2022-12-20T19:06:38.825Z,99.85
2022-12-20T19:09:14.388Z,99.89
2022-12-20T19:11:42.554Z,100.00
2022-12-20T19:14:11.335Z,100.00
2022-12-20T19:16:39.970Z,100.00
2022-12-20T19:19:08.713Z,100.00
2022-12-20T19:21:38.797Z,100.00
2022-12-20T19:24:08.077Z,100.00
2022-12-20T19:26:37.200Z,100.00
2022-12-20T19:29:05.349Z,100.00
2022-12-20T19:31:36.518Z,100.00
2022-12-20T19:34:08.156Z,100.00
2022-12-20T19:36:39.668Z,100.00
2022-12-20T19:39:11.988Z,100.00
2022-12-20T19:41:38.817Z,100.00
2022-12-20T19:44:06.545Z,100.00
2022-12-20T19:46:33.850Z,100.00
2022-12-20T19:49:00.973Z,100.00
2022-12-20T19:51:29.093Z,100.00
2022-12-20T19:53:58.117Z,100.00
2022-12-20T19:56:29.177Z,100.00
2022-12-20T19:58:57.169Z,100.00
2022-12-20T20:01:27.444Z,100.00
2022-12-20T20:03:58.343Z,100.00
2022-12-20T20:06:26.904Z,100.00
2022-12-20T20:08:57.736Z,100.00
2022-12-20T20:11:24.784Z,100.00
2022-12-20T20:13:52.137Z,100.00
2022-12-20T20:16:22.486Z,100.00
2022-12-20T20:18:51.043Z,100.00
2022-12-20T20:21:22.026Z,100.00
2022-12-20T20:23:51.808Z,100.00
2022-12-20T20:26:22.996Z,100.00
2022-12-20T20:28:50.468Z,100.00
2022-12-20T20:31:19.854Z,100.00
2022-12-20T20:33:46.983Z,100.00
2022-12-20T20:36:17.721Z,100.00
2022-12-20T20:38:45.801Z,100.00
2022-12-20T20:41:13.187Z,100.00
2022-12-20T20:43:40.293Z,100.00
2022-12-20T20:46:10.204Z,100.00
2022-12-20T20:48:37.887Z,100.00
2022-12-20T20:51:05.932Z,100.00
2022-12-20T20:53:34.404Z,100.00
2022-12-20T20:56:03.130Z,100.00
2022-12-20T20:58:30.857Z,100.00
2022-12-20T21:01:00.423Z,100.00
2022-12-20T21:03:29.998Z,100.00
2022-12-20T21:06:36.602Z,100.00
2022-12-20T21:08:44.233Z,100.00
2022-12-20T21:11:12.037Z,100.00
2022-12-20T21:13:39.116Z,100.00
2022-12-20T21:16:12.870Z,100.00
2022-12-20T21:18:40.175Z,100.00
2022-12-20T21:21:13.111Z,100.00
2022-12-20T21:23:46.407Z,100.00
2022-12-20T21:26:15.958Z,100.00
2022-12-20T21:28:43.996Z,100.00
2022-12-20T21:31:15.784Z,100.00
2022-12-20T21:33:43.110Z,100.00
2022-12-20T21:36:19.207Z,100.00
2022-12-20T21:38:51.151Z,100.00
2022-12-20T21:41:20.433Z,100.00
2022-12-20T21:43:47.211Z,100.00
2022-12-20T21:46:14.335Z,100.00
2022-12-20T21:48:43.211Z,100.00
2022-12-20T21:51:14.906Z,100.00
2022-12-20T21:53:47.929Z,100.00
2022-12-20T21:56:18.604Z,100.00
2022-12-20T21:58:47.043Z,100.00
2022-12-20T22:01:20.086Z,100.00
2022-12-20T22:03:54.384Z,100.00
2022-12-20T22:06:21.985Z,100.00
2022-12-20T22:08:49.163Z,100.00
2022-12-20T22:11:19.324Z,100.00
2022-12-20T22:13:47.021Z,100.00
2022-12-20T22:16:16.368Z,100.00
2022-12-20T22:18:44.718Z,100.00
2022-12-20T22:21:14.899Z,100.00
2022-12-20T22:23:42.496Z,100.00
2022-12-20T22:26:19.685Z,100.00
2022-12-20T22:28:53.392Z,100.00
2022-12-20T22:31:21.444Z,100.00
2022-12-20T22:33:49.571Z,100.00
2022-12-20T22:36:17.426Z,100.00
2022-12-20T22:38:45.031Z,100.00
2022-12-20T22:41:22.668Z,100.00
2022-12-20T22:43:50.105Z,100.00
2022-12-20T22:46:18.845Z,100.00
2022-12-20T22:48:46.912Z,100.00
2022-12-20T22:51:20.782Z,100.00
2022-12-20T22:53:48.475Z,100.00
2022-12-20T22:56:18.912Z,100.00
2022-12-20T22:58:46.681Z,100.00
2022-12-20T23:01:16.056Z,100.00
2022-12-20T23:03:44.902Z,100.00
2022-12-20T23:06:16.344Z,100.00
2022-12-20T23:08:43.785Z,100.00
2022-12-20T23:11:38.696Z,100.00
2022-12-20T23:14:29.688Z,100.00
2022-12-20T23:16:57.132Z,100.00
2022-12-20T23:19:24.193Z,100.00
2022-12-20T23:22:09.523Z,100.00
2022-12-20T23:24:36.400Z,100.00
2022-12-20T23:27:03.610Z,100.00
2022-12-20T23:29:30.790Z,100.00
2022-12-20T23:31:57.700Z,100.00
2022-12-20T23:34:24.661Z,100.00
2022-12-20T23:36:51.506Z,100.00
2022-12-20T23:39:18.339Z,100.00
2022-12-20T23:41:45.209Z,100.00
2022-12-20T23:44:12.051Z,100.00
2022-12-20T23:46:38.946Z,100.00
2022-12-20T23:49:06.233Z,100.00
2022-12-20T23:51:34.722Z,100.00
2022-12-20T23:54:01.835Z,100.00
2022-12-20T23:56:28.693Z,100.00
2022-12-20T23:58:56.049Z,100.00
